createdAt,value
2017-08-11T00:02:22.766Z,4.60
2017-08-11T00:04:51.985Z,5.53
2017-08-11T00:07:21.424Z,4.33
2017-08-11T00:09:50.731Z,4.40
2017-08-11T00:12:19.414Z,4.30
2017-08-11T00:14:48.209Z,4.70
2017-08-11T00:17:16.529Z,4.93
2017-08-11T00:19:44.867Z,4.77
2017-08-11T00:22:13.248Z,4.70
2017-08-11T00:24:42.321Z,3.70
2017-08-11T00:27:14.754Z,6.23
2017-08-11T00:29:43.113Z,4.17
2017-08-11T00:32:12.209Z,5.20
2017-08-11T00:34:40.920Z,4.93
2017-08-11T00:37:09.380Z,4.60
2017-08-11T00:39:38.467Z,5.00
2017-08-11T00:42:07.276Z,4.43
2017-08-11T00:44:35.600Z,4.50
2017-08-11T00:47:03.941Z,4.43
2017-08-11T00:49:32.630Z,4.67
2017-08-11T00:52:01.113Z,5.73
2017-08-11T00:54:29.638Z,4.10
2017-08-11T00:56:59.147Z,3.90
2017-08-11T00:59:27.987Z,4.60
2017-08-11T01:01:56.875Z,3.90
2017-08-11T01:04:27.390Z,5.90
2017-08-11T01:06:56.292Z,3.97
2017-08-11T01:09:25.080Z,4.63
2017-08-11T01:11:54.524Z,4.40
2017-08-11T01:14:23.582Z,3.67
2017-08-11T01:16:53.414Z,3.90
2017-08-11T01:19:22.366Z,4.83
2017-08-11T01:21:51.929Z,5.00
2017-08-11T01:24:20.400Z,5.17
2017-08-11T01:26:49.625Z,4.70
2017-08-11T01:29:18.758Z,4.00
2017-08-11T01:31:47.524Z,4.20
2017-08-11T01:34:16.265Z,4.17
2017-08-11T01:36:44.660Z,5.57
2017-08-11T01:39:12.988Z,3.87
2017-08-11T01:41:42.315Z,5.60
2017-08-11T01:44:10.693Z,4.67
2017-08-11T01:46:39.024Z,4.37
2017-08-11T01:49:07.842Z,4.47
2017-08-11T01:51:36.266Z,4.60
2017-08-11T01:54:05.003Z,4.30
2017-08-11T01:56:33.608Z,5.07
2017-08-11T01:59:02.022Z,5.17
2017-08-11T02:01:30.531Z,4.90
2017-08-11T02:03:59.069Z,4.10
2017-08-11T02:06:27.555Z,4.43
2017-08-11T02:08:56.030Z,4.83
2017-08-11T02:11:25.197Z,5.00
2017-08-11T02:13:53.798Z,5.37
2017-08-11T02:16:22.593Z,4.33
2017-08-11T02:18:51.578Z,5.13
2017-08-11T02:21:21.096Z,5.50
2017-08-11T02:23:50.455Z,4.90
2017-08-11T02:26:19.638Z,4.10
2017-08-11T02:28:47.993Z,4.47
2017-08-11T02:31:16.349Z,5.37
2017-08-11T02:33:45.091Z,4.40
2017-08-11T02:36:13.476Z,6.27
2017-08-11T02:38:42.817Z,5.03
2017-08-11T02:41:12.158Z,4.80
2017-08-11T02:43:40.540Z,3.67
2017-08-11T02:46:08.893Z,4.87
2017-08-11T02:48:38.263Z,4.93
2017-08-11T02:51:06.605Z,4.10
2017-08-11T02:53:35.108Z,4.43
2017-08-11T02:56:06.664Z,4.80
2017-08-11T02:58:35.040Z,4.00
2017-08-11T03:01:05.184Z,4.30
2017-08-11T03:03:34.027Z,4.30
2017-08-11T03:06:02.456Z,4.87
2017-08-11T03:08:31.170Z,4.03
2017-08-11T03:11:00.064Z,5.03
2017-08-11T03:13:28.668Z,4.83
2017-08-11T03:15:57.353Z,4.20
2017-08-11T03:18:27.843Z,3.87
2017-08-11T03:20:57.730Z,3.53
2017-08-11T03:23:27.702Z,3.67
2017-08-11T03:25:56.979Z,4.30
2017-08-11T03:28:26.484Z,3.33
2017-08-11T03:30:55.582Z,5.43
2017-08-11T03:33:26.461Z,3.87
2017-08-11T03:35:56.628Z,3.20
2017-08-11T03:38:25.771Z,3.30
2017-08-11T03:40:55.436Z,3.77
2017-08-11T03:43:24.092Z,4.50
2017-08-11T03:45:53.252Z,3.20
2017-08-11T03:48:23.714Z,3.53
2017-08-11T03:50:52.454Z,3.47
2017-08-11T03:53:21.198Z,3.53
2017-08-11T03:55:50.000Z,3.77
2017-08-11T03:58:18.900Z,3.87
2017-08-11T04:00:47.266Z,3.90
2017-08-11T04:03:15.999Z,3.93
2017-08-11T04:05:44.323Z,3.70
2017-08-11T04:08:12.681Z,3.87
2017-08-11T04:10:41.100Z,3.63
2017-08-11T04:13:09.419Z,3.43
2017-08-11T04:15:37.775Z,4.10
2017-08-11T04:18:06.560Z,2.93
2017-08-11T04:20:34.881Z,3.70
2017-08-11T04:23:04.164Z,3.73
2017-08-11T04:25:34.040Z,4.23
2017-08-11T04:28:02.546Z,3.90
2017-08-11T04:30:31.098Z,3.83
2017-08-11T04:32:59.497Z,4.30
2017-08-11T04:35:28.043Z,4.10
2017-08-11T04:37:56.852Z,3.20
2017-08-11T04:40:25.618Z,3.43
2017-08-11T04:42:55.561Z,3.50
2017-08-11T04:45:25.118Z,3.63
2017-08-11T04:47:55.773Z,3.57
2017-08-11T04:50:24.724Z,4.00
2017-08-11T04:52:56.112Z,3.60
2017-08-11T04:55:26.000Z,3.33
2017-08-11T04:57:55.364Z,3.67
2017-08-11T05:00:24.617Z,3.27
2017-08-11T05:02:54.069Z,3.30
2017-08-11T05:05:24.552Z,3.67
2017-08-11T05:07:55.946Z,4.27
2017-08-11T05:10:25.681Z,3.60
2017-08-11T05:12:56.241Z,4.43
2017-08-11T05:15:27.100Z,3.43
2017-08-11T05:17:57.029Z,3.20
2017-08-11T05:20:26.237Z,2.80
2017-08-11T05:22:55.495Z,3.10
2017-08-11T05:25:26.514Z,3.33
2017-08-11T05:27:55.604Z,3.60
2017-08-11T05:30:25.032Z,3.47
2017-08-11T05:32:54.455Z,3.60
2017-08-11T05:35:23.600Z,2.83
2017-08-11T05:37:53.008Z,2.87
2017-08-11T05:40:21.842Z,3.17
2017-08-11T05:42:50.302Z,2.63
2017-08-11T05:45:20.137Z,3.37
2017-08-11T05:47:48.670Z,2.80
2017-08-11T05:50:17.037Z,2.80
2017-08-11T05:52:45.527Z,3.50
2017-08-11T05:55:13.854Z,3.00
2017-08-11T05:57:42.184Z,2.30
2017-08-11T06:00:10.662Z,2.97
2017-08-11T06:02:39.042Z,2.73
2017-08-11T06:05:07.732Z,3.20
2017-08-11T06:07:37.541Z,3.67
2017-08-11T06:10:05.920Z,2.83
2017-08-11T06:12:34.277Z,2.80
2017-08-11T06:15:03.026Z,2.27
2017-08-11T06:17:31.509Z,3.03
2017-08-11T06:20:01.107Z,2.40
2017-08-11T06:22:29.730Z,2.50
2017-08-11T06:24:58.197Z,2.67
2017-08-11T06:27:27.400Z,2.37
2017-08-11T06:29:56.872Z,2.67
2017-08-11T06:32:25.309Z,2.63
2017-08-11T06:34:54.820Z,2.90
2017-08-11T06:37:24.716Z,2.63
2017-08-11T06:39:54.292Z,3.03
2017-08-11T06:42:23.260Z,2.63
2017-08-11T06:44:52.518Z,2.63
2017-08-11T06:47:21.155Z,3.20
2017-08-11T06:49:49.670Z,2.83
2017-08-11T06:52:18.841Z,3.50
2017-08-11T06:54:47.394Z,2.43
2017-08-11T06:57:15.751Z,3.47
2017-08-11T06:59:45.051Z,2.90
2017-08-11T07:02:14.287Z,2.83
2017-08-11T07:04:43.374Z,3.00
2017-08-11T07:07:12.723Z,3.03
2017-08-11T07:09:41.036Z,3.13
2017-08-11T07:12:09.349Z,2.80
2017-08-11T07:14:38.370Z,3.13
2017-08-11T07:17:06.765Z,2.93
2017-08-11T07:19:35.101Z,4.13
2017-08-11T07:22:03.822Z,3.50
2017-08-11T07:24:32.148Z,3.03
2017-08-11T07:27:00.844Z,2.60
2017-08-11T07:29:30.561Z,2.80
2017-08-11T07:31:59.009Z,2.40
2017-08-11T07:34:27.387Z,3.10
2017-08-11T07:36:56.731Z,2.77
2017-08-11T07:39:25.210Z,2.87
2017-08-11T07:41:54.235Z,3.00
2017-08-11T07:44:24.322Z,2.47
2017-08-11T07:46:53.204Z,3.40
2017-08-11T07:49:21.986Z,4.20
2017-08-11T07:51:50.750Z,3.07
2017-08-11T07:54:19.909Z,4.03
2017-08-11T07:56:53.029Z,3.20
2017-08-11T07:59:21.995Z,2.90
2017-08-11T08:01:50.979Z,3.47
2017-08-11T08:04:19.767Z,3.13
2017-08-11T08:06:48.318Z,2.53
2017-08-11T08:09:17.609Z,3.00
2017-08-11T08:11:48.589Z,2.77
2017-08-11T08:14:16.900Z,3.27
2017-08-11T08:16:46.018Z,2.60
2017-08-11T08:19:14.885Z,3.33
2017-08-11T08:21:43.231Z,2.77
2017-08-11T08:24:12.338Z,5.00
2017-08-11T08:26:41.826Z,3.10
2017-08-11T08:29:10.145Z,2.97
2017-08-11T08:31:39.229Z,3.23
2017-08-11T08:34:09.558Z,3.03
2017-08-11T08:36:37.906Z,2.77
2017-08-11T08:39:08.015Z,2.63
2017-08-11T08:41:38.660Z,3.17
2017-08-11T08:44:06.969Z,2.70
2017-08-11T08:46:35.314Z,3.33
2017-08-11T08:49:04.710Z,2.50
2017-08-11T08:51:33.428Z,3.50
2017-08-11T08:54:01.780Z,3.30
2017-08-11T08:56:30.631Z,3.30
2017-08-11T08:58:59.107Z,3.57
2017-08-11T09:01:28.551Z,3.53
2017-08-11T09:03:57.244Z,2.73
2017-08-11T09:06:26.385Z,2.60
2017-08-11T09:08:55.457Z,2.77
2017-08-11T09:11:24.560Z,3.10
2017-08-11T09:13:53.045Z,3.57
2017-08-11T09:16:21.973Z,2.97
2017-08-11T09:18:50.942Z,2.37
2017-08-11T09:21:23.399Z,2.70
2017-08-11T09:23:52.830Z,2.90
2017-08-11T09:26:33.146Z,2.93
2017-08-11T09:29:13.505Z,2.50
2017-08-11T09:31:53.838Z,2.20
2017-08-11T09:34:34.629Z,3.30
2017-08-11T09:37:03.115Z,2.67
2017-08-11T09:39:31.657Z,2.63
2017-08-11T09:42:00.639Z,2.63
2017-08-11T09:44:29.182Z,2.70
2017-08-11T09:46:57.652Z,2.77
2017-08-11T09:49:26.406Z,2.83
2017-08-11T09:51:54.849Z,3.70
2017-08-11T09:54:23.351Z,3.60
2017-08-11T09:56:52.758Z,3.00
2017-08-11T09:59:22.219Z,2.33
2017-08-11T10:01:50.854Z,2.73
2017-08-11T10:04:19.757Z,2.47
2017-08-11T10:06:48.205Z,3.40
2017-08-11T10:09:16.589Z,2.97
2017-08-11T10:11:45.901Z,2.80
2017-08-11T10:14:14.249Z,3.53
2017-08-11T10:16:42.593Z,2.77
2017-08-11T10:19:10.972Z,3.70
2017-08-11T10:21:39.277Z,3.13
2017-08-11T10:24:07.621Z,3.77
2017-08-11T10:26:36.543Z,2.57
2017-08-11T10:29:05.846Z,2.20
2017-08-11T10:31:34.203Z,2.77
2017-08-11T10:34:02.871Z,2.60
2017-08-11T10:36:31.333Z,3.47
2017-08-11T10:38:59.711Z,3.20
2017-08-11T10:41:28.690Z,2.77
2017-08-11T10:43:58.000Z,2.57
2017-08-11T10:46:26.610Z,2.30
2017-08-11T10:48:55.172Z,2.53
2017-08-11T10:51:23.644Z,3.50
2017-08-11T10:53:52.910Z,2.20
2017-08-11T10:56:22.819Z,3.30
2017-08-11T10:58:51.302Z,2.90
2017-08-11T11:01:22.251Z,2.50
2017-08-11T11:03:52.324Z,2.70
2017-08-11T11:06:21.728Z,3.47
2017-08-11T11:08:50.220Z,3.20
2017-08-11T11:11:19.417Z,3.57
2017-08-11T11:13:47.753Z,4.10
2017-08-11T11:16:16.094Z,2.87
2017-08-11T11:18:44.692Z,2.50
2017-08-11T11:21:13.039Z,4.10
2017-08-11T11:23:41.428Z,3.30
2017-08-11T11:26:10.898Z,2.80
2017-08-11T11:28:39.242Z,3.10
2017-08-11T11:31:08.603Z,2.77
2017-08-11T11:33:38.183Z,4.90
2017-08-11T11:36:07.433Z,2.80
2017-08-11T11:38:35.934Z,3.60
2017-08-11T11:41:06.627Z,3.17
2017-08-11T11:43:36.938Z,2.80
2017-08-11T11:46:05.264Z,3.33
2017-08-11T11:48:33.953Z,3.60
2017-08-11T11:51:02.463Z,3.50
2017-08-11T11:53:30.911Z,2.93
2017-08-11T11:56:01.341Z,5.00
2017-08-11T11:58:30.923Z,3.17
2017-08-11T12:01:00.257Z,4.30
2017-08-11T12:03:28.936Z,3.27
2017-08-11T12:05:57.449Z,3.60
2017-08-11T12:08:25.982Z,3.10
2017-08-11T12:10:55.393Z,2.97
2017-08-11T12:13:25.473Z,3.53
2017-08-11T12:15:54.467Z,3.90
2017-08-11T12:18:24.742Z,3.93
2017-08-11T12:20:54.316Z,4.33
2017-08-11T12:23:23.176Z,3.73
2017-08-11T12:25:52.877Z,3.80
2017-08-11T12:28:22.572Z,3.43
2017-08-11T12:30:51.154Z,4.17
2017-08-11T12:33:21.401Z,4.23
2017-08-11T12:35:51.191Z,3.50
2017-08-11T12:38:20.690Z,4.20
2017-08-11T12:40:50.229Z,4.00
2017-08-11T12:43:18.576Z,3.47
2017-08-11T12:45:47.674Z,2.97
2017-08-11T12:48:17.513Z,3.17
2017-08-11T12:50:45.827Z,2.43
2017-08-11T12:53:14.913Z,3.33
2017-08-11T12:55:43.443Z,3.00
2017-08-11T12:58:11.748Z,3.43
2017-08-11T13:00:40.090Z,4.20
2017-08-11T13:03:09.935Z,2.40
2017-08-11T13:05:38.261Z,3.40
2017-08-11T13:08:07.437Z,3.23
2017-08-11T13:10:36.946Z,3.03
2017-08-11T13:13:05.291Z,2.80
2017-08-11T13:15:34.601Z,3.63
2017-08-11T13:18:05.024Z,2.53
2017-08-11T13:20:34.314Z,2.83
2017-08-11T13:23:02.640Z,2.40
2017-08-11T13:25:32.340Z,2.90
2017-08-11T13:28:00.694Z,3.63
2017-08-11T13:30:30.049Z,3.17
2017-08-11T13:32:59.490Z,2.40
2017-08-11T13:35:28.046Z,2.17
2017-08-11T13:37:56.608Z,3.03
2017-08-11T13:40:25.664Z,2.00
2017-08-11T13:42:55.214Z,2.63
2017-08-11T13:45:23.613Z,2.40
2017-08-11T13:47:53.740Z,2.43
2017-08-11T13:50:23.090Z,2.67
2017-08-11T13:52:51.860Z,3.50
2017-08-11T13:55:22.772Z,2.67
2017-08-11T13:57:52.176Z,1.97
2017-08-11T14:00:20.657Z,2.50
2017-08-11T14:02:49.582Z,3.10
2017-08-11T14:05:18.107Z,2.70
2017-08-11T14:07:46.497Z,2.23
2017-08-11T14:10:15.588Z,2.70
2017-08-11T14:12:43.920Z,3.93
2017-08-11T14:15:13.002Z,2.83
2017-08-11T14:17:42.149Z,3.73
2017-08-11T14:20:10.494Z,4.10
2017-08-11T14:22:38.829Z,2.70
2017-08-11T14:25:07.637Z,3.53
2017-08-11T14:27:35.953Z,3.30
2017-08-11T14:30:05.062Z,3.53
2017-08-11T14:32:33.567Z,3.47
2017-08-11T14:35:03.930Z,3.43
2017-08-11T14:37:32.284Z,4.93
2017-08-11T14:40:02.041Z,3.03
2017-08-11T14:42:30.506Z,3.20
2017-08-11T14:44:59.837Z,3.60
2017-08-11T14:47:28.558Z,2.90
2017-08-11T14:49:57.935Z,3.80
2017-08-11T14:52:28.182Z,2.80
2017-08-11T14:54:57.845Z,2.93
2017-08-11T14:57:26.238Z,3.27
2017-08-11T14:59:55.162Z,2.60
2017-08-11T15:02:24.917Z,2.63
2017-08-11T15:04:53.729Z,3.17
2017-08-11T15:07:22.346Z,2.87
2017-08-11T15:09:52.333Z,3.30
2017-08-11T15:12:22.121Z,3.33
2017-08-11T15:14:50.625Z,2.87
2017-08-11T15:17:19.561Z,3.40
2017-08-11T15:19:48.894Z,2.73
2017-08-11T15:22:17.193Z,2.27
2017-08-11T15:24:48.000Z,2.93
2017-08-11T15:27:16.379Z,3.90
2017-08-11T15:29:44.688Z,3.70
2017-08-11T15:32:14.842Z,4.10
2017-08-11T15:34:44.174Z,3.90
2017-08-11T15:37:13.252Z,3.97
2017-08-11T15:39:42.579Z,4.73
2017-08-11T15:42:11.645Z,3.73
2017-08-11T15:44:39.975Z,4.23
2017-08-11T15:47:08.713Z,5.30
2017-08-11T15:49:37.038Z,4.40
2017-08-11T15:52:05.399Z,4.53
2017-08-11T15:54:34.039Z,5.53
2017-08-11T15:57:03.135Z,6.00
2017-08-11T15:59:32.283Z,4.90
2017-08-11T16:02:02.956Z,5.30
2017-08-11T16:04:32.217Z,4.90
2017-08-11T16:07:01.424Z,4.77
2017-08-11T16:09:31.235Z,4.57
2017-08-11T16:11:59.963Z,3.90
2017-08-11T16:14:28.683Z,4.37
2017-08-11T16:16:57.518Z,5.07
2017-08-11T16:19:26.292Z,6.00
2017-08-11T16:21:55.600Z,4.90
2017-08-11T16:24:24.457Z,4.17
2017-08-11T16:26:54.168Z,4.73
2017-08-11T16:29:23.391Z,5.03
2017-08-11T16:31:52.692Z,5.30
2017-08-11T16:34:21.204Z,4.87
2017-08-11T16:36:49.568Z,5.83
2017-08-11T16:39:18.874Z,5.60
2017-08-11T16:41:47.192Z,6.10
2017-08-11T16:44:15.551Z,5.60
2017-08-11T16:46:44.854Z,5.50
2017-08-11T16:49:13.213Z,6.30
2017-08-11T16:51:41.580Z,6.07
2017-08-11T16:54:09.963Z,6.40
2017-08-11T16:56:38.301Z,5.70
2017-08-11T16:59:15.165Z,6.10
2017-08-11T17:01:43.605Z,6.67
2017-08-11T17:04:12.701Z,6.83
2017-08-11T17:06:41.284Z,6.07
2017-08-11T17:09:09.647Z,6.00
2017-08-11T17:11:38.257Z,5.70
2017-08-11T17:14:07.126Z,6.33
2017-08-11T17:16:35.477Z,5.20
2017-08-11T17:19:04.018Z,6.50
2017-08-11T17:21:33.672Z,5.77
2017-08-11T17:24:02.547Z,5.40
2017-08-11T17:26:32.221Z,5.13
2017-08-11T17:29:01.247Z,5.47
2017-08-11T17:31:29.826Z,6.63
2017-08-11T17:33:58.908Z,5.13
2017-08-11T17:36:27.745Z,6.27
2017-08-11T17:38:56.181Z,4.87
2017-08-11T17:41:24.597Z,5.00
2017-08-11T17:43:53.101Z,5.03
2017-08-11T17:46:21.495Z,4.30
2017-08-11T17:48:53.767Z,5.10
2017-08-11T17:51:24.833Z,5.37
2017-08-11T17:53:53.607Z,5.20
2017-08-11T17:56:22.107Z,5.57
2017-08-11T17:58:50.926Z,4.80
2017-08-11T18:01:19.377Z,5.17
2017-08-11T18:03:48.513Z,5.80
2017-08-11T18:06:17.294Z,5.57
2017-08-11T18:08:45.649Z,6.20
2017-08-11T18:11:13.948Z,4.53
2017-08-11T18:13:43.534Z,4.63
2017-08-11T18:16:11.866Z,4.90
2017-08-11T18:18:42.133Z,6.40
2017-08-11T18:21:11.023Z,5.40
2017-08-11T18:23:39.353Z,6.50
2017-08-11T18:26:09.175Z,6.80
2017-08-11T18:28:37.592Z,5.67
2017-08-11T18:31:05.945Z,5.60
2017-08-11T18:33:35.329Z,6.07
2017-08-11T18:36:04.212Z,6.03
2017-08-11T18:38:32.634Z,7.50
2017-08-11T18:41:01.092Z,6.93
2017-08-11T18:43:30.121Z,6.40
2017-08-11T18:45:58.760Z,6.47
2017-08-11T18:48:27.434Z,7.20
2017-08-11T18:50:56.428Z,6.60
2017-08-11T18:53:26.982Z,6.70
2017-08-11T18:55:56.045Z,6.30
2017-08-11T18:58:25.631Z,5.47
2017-08-11T19:00:55.528Z,5.37
2017-08-11T19:03:24.720Z,5.77
2017-08-11T19:05:55.068Z,6.20
2017-08-11T19:08:28.521Z,6.50
2017-08-11T19:10:58.560Z,5.97
2017-08-11T19:13:27.015Z,6.43
2017-08-11T19:16:02.960Z,6.57
2017-08-11T19:18:33.924Z,7.53
2017-08-11T19:21:05.233Z,5.57
2017-08-11T19:23:39.575Z,6.37
2017-08-11T19:26:08.149Z,7.73
2017-08-11T19:28:37.289Z,6.53
2017-08-11T19:31:06.135Z,9.63
2017-08-11T19:33:34.518Z,6.00
2017-08-11T19:36:03.041Z,7.63
2017-08-11T19:38:33.164Z,6.07
2017-08-11T19:41:01.906Z,6.93
2017-08-11T19:43:31.521Z,7.20
2017-08-11T19:46:01.743Z,6.93
2017-08-11T19:48:30.500Z,6.90
2017-08-11T19:50:58.974Z,6.53
2017-08-11T19:53:27.787Z,6.47
2017-08-11T19:55:56.372Z,6.43
2017-08-11T19:58:24.933Z,6.93
2017-08-11T20:00:54.344Z,6.60
2017-08-11T20:03:22.992Z,5.83
2017-08-11T20:05:52.366Z,6.07
2017-08-11T20:08:22.040Z,7.10
2017-08-11T20:10:50.838Z,6.73
2017-08-11T20:13:23.835Z,6.20
2017-08-11T20:15:52.518Z,7.17
2017-08-11T20:18:21.125Z,7.30
2017-08-11T20:20:49.824Z,6.63
2017-08-11T20:23:18.372Z,7.00
2017-08-11T20:25:47.792Z,7.87
2017-08-11T20:28:16.219Z,6.30
2017-08-11T20:30:45.645Z,7.30
2017-08-11T20:33:14.025Z,6.70
2017-08-11T20:35:43.494Z,6.50
2017-08-11T20:38:11.810Z,6.13
2017-08-11T20:40:40.179Z,6.30
2017-08-11T20:43:08.837Z,6.40
2017-08-11T20:45:38.058Z,5.93
2017-08-11T20:48:06.521Z,7.60
2017-08-11T20:50:35.665Z,7.93
2017-08-11T20:53:04.861Z,6.90
2017-08-11T20:55:34.338Z,5.67
2017-08-11T20:58:04.911Z,6.43
2017-08-11T21:00:33.468Z,7.13
2017-08-11T21:03:01.789Z,6.20
2017-08-11T21:05:30.883Z,6.20
2017-08-11T21:07:59.292Z,8.10
2017-08-11T21:10:27.802Z,5.97
2017-08-11T21:12:56.739Z,5.83
2017-08-11T21:15:25.791Z,6.73
2017-08-11T21:17:54.373Z,6.10
2017-08-11T21:20:23.982Z,5.97
2017-08-11T21:22:53.312Z,5.53
2017-08-11T21:25:22.176Z,5.33
2017-08-11T21:27:51.986Z,5.57
2017-08-11T21:30:20.596Z,5.47
2017-08-11T21:32:50.948Z,4.20
2017-08-11T21:35:19.803Z,5.00
2017-08-11T21:37:48.219Z,4.40
2017-08-11T21:40:16.570Z,3.80
2017-08-11T21:42:45.012Z,3.73
2017-08-11T21:45:14.378Z,4.00
2017-08-11T21:47:49.338Z,4.17
2017-08-11T21:50:17.691Z,4.10
2017-08-11T21:52:46.000Z,4.57
2017-08-11T21:55:14.947Z,4.20
2017-08-11T21:57:43.310Z,4.23
2017-08-11T22:00:11.719Z,4.70
2017-08-11T22:02:41.057Z,4.80
2017-08-11T22:05:09.401Z,4.37
2017-08-11T22:07:38.801Z,4.00
2017-08-11T22:10:07.212Z,4.20
2017-08-11T22:12:35.551Z,3.63
2017-08-11T22:15:04.908Z,3.93
2017-08-11T22:17:33.715Z,4.20
2017-08-11T22:20:02.658Z,4.00
2017-08-11T22:22:31.136Z,3.50
2017-08-11T22:25:00.123Z,3.67
2017-08-11T22:27:28.636Z,3.63
2017-08-11T22:29:57.848Z,3.97
2017-08-11T22:32:27.409Z,3.60
2017-08-11T22:34:56.641Z,4.70
2017-08-11T22:37:26.407Z,3.10
2017-08-11T22:39:55.686Z,3.70
2017-08-11T22:42:24.211Z,2.80
2017-08-11T22:44:53.591Z,3.23
2017-08-11T22:47:22.855Z,2.50
2017-08-11T22:49:52.625Z,2.90
2017-08-11T22:52:22.335Z,3.87
2017-08-11T22:54:50.911Z,3.57
2017-08-11T22:57:24.174Z,3.10
2017-08-11T22:59:54.734Z,5.77
2017-08-11T23:02:24.052Z,3.00
2017-08-11T23:04:52.630Z,2.83
2017-08-11T23:07:21.508Z,2.73
2017-08-11T23:09:52.125Z,2.57
2017-08-11T23:12:24.887Z,2.70
2017-08-11T23:14:53.301Z,3.30
2017-08-11T23:17:23.385Z,3.23
2017-08-11T23:19:53.166Z,3.43
2017-08-11T23:22:22.233Z,3.40
2017-08-11T23:24:50.641Z,3.10
2017-08-11T23:27:19.837Z,2.50
2017-08-11T23:29:48.202Z,3.10
2017-08-11T23:32:16.581Z,2.67
2017-08-11T23:34:45.102Z,2.63
2017-08-11T23:37:14.646Z,2.67
2017-08-11T23:39:43.768Z,2.43
2017-08-11T23:42:12.421Z,2.63
2017-08-11T23:44:41.708Z,3.00
2017-08-11T23:47:10.034Z,2.80
2017-08-11T23:49:39.467Z,3.07
2017-08-11T23:52:07.814Z,3.20
2017-08-11T23:54:36.153Z,3.13
2017-08-11T23:57:04.836Z,3.37
2017-08-11T23:59:33.289Z,2.50
